createdAt,value
2019-06-27T00:02:24.379Z,101731.00
2019-06-27T00:04:54.101Z,101728.00
2019-06-27T00:07:23.812Z,101734.00
2019-06-27T00:09:53.466Z,101723.00
2019-06-27T00:12:23.204Z,101722.00
2019-06-27T00:14:52.921Z,101720.00
2019-06-27T00:17:22.618Z,101722.00
2019-06-27T00:19:52.343Z,101715.00
2019-06-27T00:22:22.032Z,101719.00
2019-06-27T00:24:51.736Z,101716.00
2019-06-27T00:27:21.737Z,101722.00
2019-06-27T00:29:52.520Z,101714.00
2019-06-27T00:32:22.167Z,101718.00
2019-06-27T00:34:53.311Z,101708.00
2019-06-27T00:37:26.142Z,101715.00
2019-06-27T00:39:55.793Z,101708.00
2019-06-27T00:42:25.463Z,101715.00
2019-06-27T00:44:55.144Z,101723.00
2019-06-27T00:47:24.810Z,101712.00
2019-06-27T00:49:56.007Z,101719.00
2019-06-27T00:52:28.404Z,101704.00
2019-06-27T00:54:58.130Z,101706.00
2019-06-27T00:57:29.815Z,101723.00
2019-06-27T01:00:00.195Z,101733.00
2019-06-27T01:02:31.338Z,101729.00
2019-06-27T01:05:04.153Z,101724.00
2019-06-27T01:07:33.838Z,101721.00
2019-06-27T01:10:05.010Z,101727.00
2019-06-27T01:12:36.785Z,101718.00
2019-06-27T01:15:10.485Z,101711.00
2019-06-27T01:17:40.154Z,101712.00
2019-06-27T01:20:11.321Z,101706.00
2019-06-27T01:22:42.665Z,101723.00
2019-06-27T01:25:13.007Z,101706.00
2019-06-27T01:27:46.320Z,101707.00
2019-06-27T01:30:18.646Z,101707.00
2019-06-27T01:32:49.423Z,101718.00
2019-06-27T01:35:20.065Z,101723.00
2019-06-27T01:37:52.289Z,101723.00
2019-06-27T01:40:22.545Z,101723.00
2019-06-27T01:42:52.304Z,101717.00
2019-06-27T01:45:23.598Z,101711.00
2019-06-27T01:47:55.355Z,101720.00
2019-06-27T01:50:26.207Z,101720.00
2019-06-27T01:52:55.892Z,101711.00
2019-06-27T01:55:25.879Z,101721.00
2019-06-27T01:57:55.794Z,101724.00
2019-06-27T02:00:26.096Z,101725.00
2019-06-27T02:02:55.754Z,101721.00
2019-06-27T02:05:25.423Z,101731.00
2019-06-27T02:07:55.108Z,101726.00
2019-06-27T02:10:25.356Z,101722.00
2019-06-27T02:12:56.783Z,101717.00
2019-06-27T02:15:28.244Z,101724.00
2019-06-27T02:17:57.903Z,101720.00
2019-06-27T02:20:29.285Z,101726.00
2019-06-27T02:22:59.058Z,101725.00
2019-06-27T02:25:29.003Z,101716.00
2019-06-27T02:28:04.069Z,101720.00
2019-06-27T02:30:44.604Z,101705.00
2019-06-27T02:33:14.552Z,101723.00
2019-06-27T02:35:44.225Z,101710.00
2019-06-27T02:38:13.916Z,101709.00
2019-06-27T02:40:43.683Z,101714.00
2019-06-27T02:43:13.350Z,101721.00
2019-06-27T02:45:44.804Z,101710.00
2019-06-27T02:48:14.468Z,101712.00
2019-06-27T02:50:44.139Z,101705.00
2019-06-27T02:53:13.954Z,101707.00
2019-06-27T02:55:43.611Z,101721.00
2019-06-27T02:58:30.199Z,101708.00
2019-06-27T03:00:44.697Z,101715.00
2019-06-27T03:03:15.045Z,101709.00
2019-06-27T03:05:44.710Z,101718.00
2019-06-27T03:08:14.636Z,101718.00
2019-06-27T03:10:44.298Z,101720.00
2019-06-27T03:13:13.953Z,101717.00
2019-06-27T03:15:43.651Z,101718.00
2019-06-27T03:18:13.323Z,101718.00
2019-06-27T03:20:43.416Z,101711.00
2019-06-27T03:23:13.678Z,101703.00
2019-06-27T03:25:44.458Z,101699.00
2019-06-27T03:28:14.110Z,101703.00
2019-06-27T03:30:43.997Z,101698.00
2019-06-27T03:33:13.654Z,101697.00
2019-06-27T03:35:43.685Z,101698.00
2019-06-27T03:38:15.246Z,101701.00
2019-06-27T03:40:46.573Z,101702.00
2019-06-27T03:43:16.229Z,101698.00
2019-06-27T03:45:45.913Z,101701.00
2019-06-27T03:48:16.674Z,101693.00
2019-06-27T03:50:46.318Z,101698.00
2019-06-27T03:53:16.294Z,101695.00
2019-06-27T03:55:49.389Z,101698.00
2019-06-27T03:58:20.530Z,101687.00
2019-06-27T04:00:50.229Z,101693.00
2019-06-27T04:03:19.899Z,101704.00
2019-06-27T04:05:49.544Z,101699.00
2019-06-27T04:08:19.243Z,101706.00
2019-06-27T04:10:49.536Z,101701.00
2019-06-27T04:13:19.134Z,101699.00
2019-06-27T04:16:09.380Z,101700.00
2019-06-27T04:18:39.051Z,101700.00
2019-06-27T04:21:08.724Z,101710.00
2019-06-27T04:23:40.074Z,101696.00
2019-06-27T04:26:11.146Z,101710.00
2019-06-27T04:28:42.378Z,101702.00
2019-06-27T04:31:12.059Z,101701.00
2019-06-27T04:33:41.704Z,101703.00
2019-06-27T04:36:11.717Z,101695.00
2019-06-27T04:38:41.563Z,101698.00
2019-06-27T04:41:13.869Z,101704.00
2019-06-27T04:43:43.537Z,101695.00
2019-06-27T04:46:13.226Z,101690.00
2019-06-27T04:48:43.117Z,101694.00
2019-06-27T04:51:12.761Z,101694.00
2019-06-27T04:53:45.373Z,101703.00
2019-06-27T04:56:15.046Z,101705.00
2019-06-27T04:58:44.715Z,101702.00
2019-06-27T05:01:14.456Z,101708.00
2019-06-27T05:03:44.085Z,101708.00
2019-06-27T05:06:13.775Z,101713.00
2019-06-27T05:08:43.466Z,101699.00
2019-06-27T05:11:13.123Z,101701.00
2019-06-27T05:13:42.789Z,101692.00
2019-06-27T05:16:13.769Z,101705.00
2019-06-27T05:18:43.416Z,101705.00
2019-06-27T05:21:13.861Z,101696.00
2019-06-27T05:23:43.561Z,101699.00
2019-06-27T05:26:14.680Z,101693.00
2019-06-27T05:28:44.699Z,101697.00
2019-06-27T05:31:14.518Z,101704.00
2019-06-27T05:33:44.118Z,101704.00
2019-06-27T05:36:13.796Z,101703.00
2019-06-27T05:38:43.429Z,101708.00
2019-06-27T05:41:13.211Z,101706.00
2019-06-27T05:43:44.351Z,101699.00
2019-06-27T05:46:14.755Z,101699.00
2019-06-27T05:48:44.429Z,101698.00
2019-06-27T05:51:14.101Z,101706.00
2019-06-27T05:53:45.715Z,101711.00
2019-06-27T05:56:16.658Z,101706.00
2019-06-27T05:58:46.632Z,101703.00
2019-06-27T06:01:16.291Z,101716.00
2019-06-27T06:03:45.955Z,101711.00
2019-06-27T06:06:15.549Z,101711.00
2019-06-27T06:08:45.274Z,101713.00
2019-06-27T06:11:15.286Z,101712.00
2019-06-27T06:13:44.955Z,101702.00
2019-06-27T06:16:16.136Z,101700.00
2019-06-27T06:18:45.834Z,101699.00
2019-06-27T06:21:15.498Z,101696.00
2019-06-27T06:23:45.140Z,101707.00
2019-06-27T06:26:15.919Z,101703.00
2019-06-27T06:28:45.842Z,101699.00
2019-06-27T06:31:15.476Z,101698.00
2019-06-27T06:33:45.127Z,101700.00
2019-06-27T06:36:14.816Z,101702.00
2019-06-27T06:38:44.514Z,101705.00
2019-06-27T06:41:14.223Z,101701.00
2019-06-27T06:43:43.881Z,101703.00
2019-06-27T06:46:13.705Z,101707.00
2019-06-27T06:48:43.384Z,101710.00
2019-06-27T06:51:13.054Z,101719.00
2019-06-27T06:53:42.768Z,101712.00
2019-06-27T06:56:12.524Z,101707.00
2019-06-27T06:58:42.123Z,101716.00
2019-06-27T07:01:11.857Z,101724.00
2019-06-27T07:03:41.569Z,101729.00
2019-06-27T07:06:11.275Z,101729.00
2019-06-27T07:08:40.961Z,101724.00
2019-06-27T07:11:10.628Z,101723.00
2019-06-27T07:13:40.209Z,101724.00
2019-06-27T07:16:09.890Z,101731.00
2019-06-27T07:18:40.706Z,101729.00
2019-06-27T07:21:11.854Z,101735.00
2019-06-27T07:23:42.462Z,101737.00
2019-06-27T07:26:13.995Z,101730.00
2019-06-27T07:28:45.147Z,101735.00
2019-06-27T07:31:18.169Z,101735.00
2019-06-27T07:33:49.231Z,101740.00
2019-06-27T07:36:18.887Z,101741.00
2019-06-27T07:38:48.555Z,101740.00
2019-06-27T07:41:18.211Z,101730.00
2019-06-27T07:43:47.864Z,101742.00
2019-06-27T07:46:25.284Z,101744.00
2019-06-27T07:48:49.088Z,101745.00
2019-06-27T07:51:18.795Z,101749.00
2019-06-27T07:53:49.359Z,101739.00
2019-06-27T07:56:20.346Z,101743.00
2019-06-27T07:58:50.066Z,101753.00
2019-06-27T08:01:34.161Z,101755.00
2019-06-27T08:03:51.229Z,101750.00
2019-06-27T08:06:20.897Z,101755.00
2019-06-27T08:08:50.653Z,101758.00
2019-06-27T08:11:20.324Z,101754.00
2019-06-27T08:13:49.976Z,101758.00
2019-06-27T08:16:23.887Z,101758.00
2019-06-27T08:18:53.554Z,101754.00
2019-06-27T08:21:24.858Z,101752.00
2019-06-27T08:23:54.632Z,101758.00
2019-06-27T08:26:24.278Z,101747.00
2019-06-27T08:28:53.941Z,101751.00
2019-06-27T08:31:23.701Z,101738.00
2019-06-27T08:33:54.567Z,101741.00
2019-06-27T08:36:24.254Z,101737.00
2019-06-27T08:38:53.940Z,101737.00
2019-06-27T08:41:23.600Z,101737.00
2019-06-27T08:43:53.195Z,101737.00
2019-06-27T08:46:22.988Z,101736.00
2019-06-27T08:48:52.655Z,101739.00
2019-06-27T08:51:22.326Z,101738.00
2019-06-27T08:53:53.010Z,101736.00
2019-06-27T08:56:23.641Z,101733.00
2019-06-27T08:58:53.324Z,101744.00
2019-06-27T09:01:32.399Z,101736.00
2019-06-27T09:04:02.094Z,101740.00
2019-06-27T09:06:31.770Z,101743.00
2019-06-27T09:09:01.464Z,101737.00
2019-06-27T09:11:33.862Z,101741.00
2019-06-27T09:14:02.592Z,101739.00
2019-06-27T09:16:34.709Z,101736.00
2019-06-27T09:19:04.377Z,101726.00
2019-06-27T09:21:34.044Z,101734.00
2019-06-27T09:24:03.750Z,101732.00
2019-06-27T09:26:33.418Z,101733.00
2019-06-27T09:29:03.097Z,101740.00
2019-06-27T09:31:32.779Z,101744.00
2019-06-27T09:34:03.291Z,101738.00
2019-06-27T09:36:32.955Z,101726.00
2019-06-27T09:39:04.745Z,101739.00
2019-06-27T09:41:34.428Z,101739.00
2019-06-27T09:44:04.306Z,101734.00
2019-06-27T09:46:35.446Z,101732.00
2019-06-27T09:49:05.133Z,101731.00
2019-06-27T09:51:36.734Z,101740.00
2019-06-27T09:54:06.530Z,101733.00
2019-06-27T09:56:36.256Z,101734.00
2019-06-27T09:59:05.925Z,101738.00
2019-06-27T10:01:35.911Z,101733.00
2019-06-27T10:04:05.606Z,101743.00
2019-06-27T10:06:35.254Z,101729.00
2019-06-27T10:09:06.263Z,101740.00
2019-06-27T10:11:35.936Z,101741.00
2019-06-27T10:19:27.711Z,101739.00
2019-06-27T10:21:57.513Z,101728.00
2019-06-27T10:24:27.167Z,101725.00
2019-06-27T10:26:56.867Z,101723.00
2019-06-27T10:29:26.528Z,101714.00
2019-06-27T10:31:56.200Z,101712.00
2019-06-27T10:34:27.369Z,101716.00
2019-06-27T10:36:57.154Z,101714.00
2019-06-27T10:39:26.827Z,101714.00
2019-06-27T10:41:57.116Z,101708.00
2019-06-27T10:44:26.767Z,101698.00
2019-06-27T10:46:57.042Z,101698.00
2019-06-27T10:49:26.659Z,101690.00
2019-06-27T10:51:56.306Z,101695.00
2019-06-27T10:54:25.992Z,101696.00
2019-06-27T10:56:55.677Z,101682.00
2019-06-27T10:59:25.364Z,101689.00
2019-06-27T11:01:55.090Z,101691.00
2019-06-27T11:04:24.790Z,101683.00
2019-06-27T11:06:54.271Z,101685.00
2019-06-27T11:09:25.573Z,101679.00
2019-06-27T11:11:55.247Z,101676.00
2019-06-27T11:14:24.924Z,101679.00
2019-06-27T11:16:54.614Z,101682.00
2019-06-27T11:19:24.317Z,101687.00
2019-06-27T11:21:53.978Z,101682.00
2019-06-27T11:24:23.650Z,101681.00
2019-06-27T11:26:53.400Z,101677.00
2019-06-27T11:29:23.077Z,101681.00
2019-06-27T11:31:52.758Z,101678.00
2019-06-27T11:34:22.507Z,101672.00
2019-06-27T11:36:52.157Z,101682.00
2019-06-27T11:39:23.354Z,101678.00
2019-06-27T11:41:53.291Z,101672.00
2019-06-27T11:44:22.968Z,101681.00
2019-06-27T11:46:52.644Z,101682.00
2019-06-27T11:49:22.340Z,101682.00
2019-06-27T11:51:53.501Z,101678.00
2019-06-27T11:54:23.180Z,101668.00
2019-06-27T11:56:52.870Z,101680.00
2019-06-27T11:59:22.539Z,101666.00
2019-06-27T12:01:52.302Z,101672.00
2019-06-27T12:04:22.126Z,101687.00
2019-06-27T12:06:52.133Z,101688.00
2019-06-27T12:09:21.766Z,101673.00
2019-06-27T12:11:51.464Z,101667.00
2019-06-27T12:14:24.193Z,101669.00
2019-06-27T12:16:54.126Z,101659.00
2019-06-27T12:19:24.218Z,101661.00
2019-06-27T12:21:55.585Z,101669.00
2019-06-27T12:24:25.274Z,101666.00
2019-06-27T12:26:56.616Z,101655.00
2019-06-27T12:29:26.296Z,101664.00
2019-06-27T12:31:56.252Z,101661.00
2019-06-27T12:34:25.956Z,101653.00
2019-06-27T12:36:55.565Z,101666.00
2019-06-27T12:39:25.237Z,101654.00
2019-06-27T12:41:54.929Z,101649.00
2019-06-27T12:44:24.600Z,101645.00
2019-06-27T12:46:54.276Z,101653.00
2019-06-27T12:49:41.135Z,101651.00
2019-06-27T12:51:55.375Z,101648.00
2019-06-27T12:54:25.217Z,101656.00
2019-06-27T12:56:55.099Z,101659.00
2019-06-27T12:59:26.583Z,101654.00
2019-06-27T13:01:56.251Z,101655.00
2019-06-27T13:04:25.954Z,101645.00
2019-06-27T13:06:55.643Z,101657.00
2019-06-27T13:09:25.427Z,101648.00
2019-06-27T13:11:56.898Z,101647.00
2019-06-27T13:14:26.549Z,101646.00
2019-06-27T13:16:56.269Z,101634.00
2019-06-27T13:19:25.978Z,101635.00
2019-06-27T13:21:55.680Z,101624.00
2019-06-27T13:24:25.635Z,101629.00
2019-06-27T13:26:55.454Z,101628.00
2019-06-27T13:29:27.039Z,101626.00
2019-06-27T13:31:56.512Z,101624.00
2019-06-27T13:34:39.396Z,101619.00
2019-06-27T13:36:57.620Z,101612.00
2019-06-27T13:39:27.313Z,101596.00
2019-06-27T13:41:57.496Z,101613.00
2019-06-27T13:44:27.177Z,101597.00
2019-06-27T13:46:56.853Z,101597.00
2019-06-27T13:49:26.954Z,101569.00
2019-06-27T13:51:56.635Z,101573.00
2019-06-27T13:54:26.331Z,101570.00
2019-06-27T13:56:56.254Z,101579.00
2019-06-27T13:59:25.969Z,101570.00
2019-06-27T14:01:55.633Z,101578.00
2019-06-27T14:04:25.325Z,101576.00
2019-06-27T14:06:55.092Z,101576.00
2019-06-27T14:09:24.738Z,101560.00
2019-06-27T14:11:54.491Z,101571.00
2019-06-27T14:14:24.155Z,101568.00
2019-06-27T14:16:53.821Z,101563.00
2019-06-27T14:19:23.522Z,101574.00
2019-06-27T14:21:53.190Z,101568.00
2019-06-27T14:24:23.954Z,101568.00
2019-06-27T14:26:53.722Z,101560.00
2019-06-27T14:29:23.390Z,101559.00
2019-06-27T14:31:54.529Z,101554.00
2019-06-27T14:34:26.013Z,101547.00
2019-06-27T14:36:55.767Z,101552.00
2019-06-27T14:39:25.521Z,101554.00
2019-06-27T14:41:55.566Z,101564.00
2019-06-27T14:44:25.215Z,101561.00
2019-06-27T14:46:54.853Z,101553.00
2019-06-27T14:49:24.550Z,101566.00
2019-06-27T14:51:54.202Z,101560.00
2019-06-27T14:54:24.562Z,101577.00
2019-06-27T14:56:54.232Z,101581.00
2019-06-27T14:59:24.046Z,101577.00
2019-06-27T15:01:53.684Z,101578.00
2019-06-27T15:04:23.462Z,101580.00
2019-06-27T15:06:53.175Z,101573.00
2019-06-27T15:09:24.296Z,101569.00
2019-06-27T15:11:54.021Z,101570.00
2019-06-27T15:14:23.683Z,101572.00
2019-06-27T15:16:53.502Z,101570.00
2019-06-27T15:19:23.160Z,101571.00
2019-06-27T15:21:52.836Z,101572.00
2019-06-27T15:24:22.515Z,101564.00
2019-06-27T15:26:53.707Z,101565.00
2019-06-27T15:29:23.357Z,101568.00
2019-06-27T15:31:53.044Z,101563.00
2019-06-27T15:34:23.370Z,101572.00
2019-06-27T15:36:53.050Z,101560.00
2019-06-27T15:39:22.770Z,101558.00
2019-06-27T15:41:52.436Z,101553.00
2019-06-27T15:44:22.151Z,101550.00
2019-06-27T15:46:54.299Z,101557.00
2019-06-27T15:49:24.109Z,101561.00
2019-06-27T15:51:53.793Z,101552.00
2019-06-27T15:54:23.469Z,101552.00
2019-06-27T15:56:53.156Z,101552.00
2019-06-27T15:59:24.397Z,101543.00
2019-06-27T16:01:54.080Z,101528.00
2019-06-27T16:04:32.628Z,101543.00
2019-06-27T16:06:56.729Z,101523.00
2019-06-27T16:09:26.402Z,101541.00
2019-06-27T16:11:56.181Z,101538.00
2019-06-27T16:14:25.903Z,101526.00
2019-06-27T16:16:55.566Z,101527.00
2019-06-27T16:19:25.300Z,101528.00
2019-06-27T16:21:54.972Z,101519.00
2019-06-27T16:24:24.641Z,101523.00
2019-06-27T16:26:54.414Z,101514.00
2019-06-27T16:29:24.077Z,101516.00
2019-06-27T16:31:53.771Z,101509.00
2019-06-27T16:34:23.678Z,101497.00
2019-06-27T16:36:54.125Z,101495.00
2019-06-27T16:39:23.813Z,101500.00
2019-06-27T16:41:53.356Z,101497.00
2019-06-27T16:44:23.295Z,101490.00
2019-06-27T16:46:52.956Z,101479.00
2019-06-27T16:49:22.649Z,101485.00
2019-06-27T16:51:53.667Z,101494.00
2019-06-27T16:54:23.356Z,101480.00
2019-06-27T16:56:53.040Z,101485.00
2019-06-27T16:59:22.705Z,101488.00
2019-06-27T17:01:52.378Z,101469.00
2019-06-27T17:04:22.479Z,101471.00
2019-06-27T17:06:52.268Z,101477.00
2019-06-27T17:09:21.943Z,101473.00
2019-06-27T17:11:51.655Z,101465.00
2019-06-27T17:14:21.486Z,101477.00
2019-06-27T17:16:51.166Z,101470.00
2019-06-27T17:19:20.878Z,101467.00
2019-06-27T17:21:52.881Z,101464.00
2019-06-27T17:24:22.608Z,101465.00
2019-06-27T17:26:52.288Z,101455.00
2019-06-27T17:29:22.025Z,101462.00
2019-06-27T17:31:52.003Z,101452.00
2019-06-27T17:34:21.714Z,101452.00
2019-06-27T17:36:57.495Z,101452.00
2019-06-27T17:39:22.803Z,101471.00
2019-06-27T17:41:52.479Z,101461.00
2019-06-27T17:44:22.216Z,101462.00
2019-06-27T17:46:51.901Z,101465.00
2019-06-27T17:49:27.961Z,101465.00
2019-06-27T17:52:13.881Z,101440.00
2019-06-27T17:54:44.693Z,101461.00
2019-06-27T17:57:14.439Z,101463.00
2019-06-27T17:59:44.088Z,101463.00
2019-06-27T18:02:13.793Z,101459.00
2019-06-27T18:04:43.475Z,101461.00
2019-06-27T18:07:15.025Z,101448.00
2019-06-27T18:09:44.441Z,101451.00
2019-06-27T18:12:14.111Z,101456.00
2019-06-27T18:14:43.790Z,101456.00
2019-06-27T18:17:13.883Z,101455.00
2019-06-27T18:19:43.399Z,101457.00
2019-06-27T18:22:13.322Z,101459.00
2019-06-27T18:24:43.020Z,101461.00
2019-06-27T18:27:12.696Z,101462.00
2019-06-27T18:29:42.382Z,101461.00
2019-06-27T18:32:12.086Z,101470.00
2019-06-27T18:34:41.745Z,101469.00
2019-06-27T18:37:11.439Z,101462.00
2019-06-27T18:39:41.140Z,101475.00
2019-06-27T18:42:10.813Z,101475.00
2019-06-27T18:44:40.742Z,101480.00
2019-06-27T18:47:10.436Z,101487.00
2019-06-27T18:49:40.104Z,101483.00
2019-06-27T18:52:09.850Z,101482.00
2019-06-27T18:54:39.557Z,101478.00
2019-06-27T18:57:09.221Z,101480.00
2019-06-27T18:59:39.018Z,101490.00
2019-06-27T19:02:09.327Z,101487.00
2019-06-27T19:04:39.007Z,101494.00
2019-06-27T19:07:08.671Z,101500.00
2019-06-27T19:09:38.747Z,101496.00
2019-06-27T19:12:08.435Z,101507.00
2019-06-27T19:14:38.072Z,101502.00
2019-06-27T19:17:07.762Z,101497.00
2019-06-27T19:19:39.071Z,101503.00
2019-06-27T19:22:10.412Z,101496.00
2019-06-27T19:24:47.718Z,101509.00
2019-06-27T19:27:17.374Z,101504.00
2019-06-27T19:29:47.048Z,101500.00
2019-06-27T19:32:16.750Z,101511.00
2019-06-27T19:34:47.409Z,101509.00
2019-06-27T19:37:17.130Z,101502.00
2019-06-27T19:39:46.818Z,101507.00
2019-06-27T19:42:16.491Z,101495.00
2019-06-27T19:44:46.138Z,101495.00
2019-06-27T19:47:15.886Z,101484.00
2019-06-27T19:49:45.552Z,101494.00
2019-06-27T19:52:15.517Z,101491.00
2019-06-27T19:54:45.192Z,101492.00
2019-06-27T19:57:14.877Z,101486.00
2019-06-27T19:59:44.559Z,101485.00
2019-06-27T20:02:14.279Z,101479.00
2019-06-27T20:04:43.920Z,101464.00
2019-06-27T20:07:13.623Z,101474.00
2019-06-27T20:09:43.303Z,101484.00
2019-06-27T20:12:12.981Z,101483.00
2019-06-27T20:14:42.661Z,101477.00
2019-06-27T20:17:13.403Z,101479.00
2019-06-27T20:19:44.734Z,101486.00
2019-06-27T20:22:17.491Z,101484.00
2019-06-27T20:24:47.236Z,101481.00
2019-06-27T20:27:18.323Z,101474.00
2019-06-27T20:29:47.972Z,101479.00
2019-06-27T20:32:17.688Z,101477.00
2019-06-27T20:34:47.357Z,101476.00
2019-06-27T20:37:17.030Z,101473.00
2019-06-27T20:39:46.722Z,101472.00
2019-06-27T20:42:16.381Z,101471.00
2019-06-27T20:44:46.483Z,101484.00
2019-06-27T20:47:16.188Z,101476.00
2019-06-27T20:49:46.469Z,101475.00
2019-06-27T20:52:16.146Z,101474.00
2019-06-27T20:54:45.816Z,101473.00
2019-06-27T20:57:15.481Z,101478.00
2019-06-27T20:59:45.176Z,101490.00
2019-06-27T21:02:14.851Z,101473.00
2019-06-27T21:04:44.509Z,101477.00
2019-06-27T21:07:14.186Z,101470.00
2019-06-27T21:09:43.864Z,101468.00
2019-06-27T21:12:13.547Z,101473.00
2019-06-27T21:14:44.459Z,101475.00
2019-06-27T21:17:14.162Z,101481.00
2019-06-27T21:19:45.017Z,101479.00
2019-06-27T21:22:14.697Z,101470.00
2019-06-27T21:24:44.406Z,101478.00
2019-06-27T21:27:14.093Z,101479.00
2019-06-27T21:29:43.802Z,101480.00
2019-06-27T21:32:30.237Z,101488.00
2019-06-27T21:34:45.553Z,101487.00
2019-06-27T21:37:15.254Z,101487.00
2019-06-27T21:39:44.924Z,101481.00
2019-06-27T21:42:14.602Z,101485.00
2019-06-27T21:44:44.604Z,101479.00
2019-06-27T21:47:14.266Z,101485.00
2019-06-27T21:49:43.982Z,101484.00
2019-06-27T21:52:13.807Z,101474.00
2019-06-27T21:54:43.469Z,101467.00
2019-06-27T21:57:13.134Z,101473.00
2019-06-27T21:59:42.819Z,101473.00
2019-06-27T22:02:12.926Z,101469.00
2019-06-27T22:04:44.337Z,101472.00
2019-06-27T22:07:14.113Z,101466.00
2019-06-27T22:09:43.849Z,101466.00
2019-06-27T22:12:13.502Z,101466.00
2019-06-27T22:14:43.396Z,101470.00
2019-06-27T22:17:13.067Z,101461.00
2019-06-27T22:19:42.863Z,101460.00
2019-06-27T22:22:12.578Z,101458.00
2019-06-27T22:24:42.271Z,101467.00
2019-06-27T22:27:12.019Z,101464.00
2019-06-27T22:29:41.731Z,101467.00
2019-06-27T22:32:11.407Z,101460.00
2019-06-27T22:34:41.078Z,101463.00
2019-06-27T22:37:11.947Z,101470.00
2019-06-27T22:39:59.432Z,101456.00
2019-06-27T22:42:47.228Z,101451.00
2019-06-27T22:45:34.698Z,101445.00
2019-06-27T22:48:13.253Z,101448.00
2019-06-27T22:50:50.480Z,101462.00
2019-06-27T22:53:34.947Z,101449.00
2019-06-27T22:56:05.120Z,101456.00
2019-06-27T22:58:34.779Z,101453.00
2019-06-27T23:01:06.130Z,101451.00
2019-06-27T23:03:36.013Z,101446.00
2019-06-27T23:06:05.873Z,101448.00
2019-06-27T23:08:35.559Z,101445.00
2019-06-27T23:11:05.251Z,101441.00
2019-06-27T23:13:34.888Z,101446.00
2019-06-27T23:16:05.813Z,101446.00
2019-06-27T23:18:35.477Z,101452.00
2019-06-27T23:21:05.146Z,101450.00
2019-06-27T23:23:37.214Z,101447.00
2019-06-27T23:26:06.880Z,101447.00
2019-06-27T23:28:36.546Z,101443.00
2019-06-27T23:31:06.223Z,101445.00
2019-06-27T23:33:35.907Z,101448.00
2019-06-27T23:36:05.580Z,101437.00
2019-06-27T23:38:35.343Z,101446.00
2019-06-27T23:41:06.258Z,101443.00
2019-06-27T23:43:36.824Z,101436.00
2019-06-27T23:46:08.153Z,101442.00
2019-06-27T23:48:37.809Z,101452.00
2019-06-27T23:51:07.471Z,101445.00
2019-06-27T23:53:37.478Z,101443.00
2019-06-27T23:56:07.124Z,101446.00
2019-06-27T23:58:36.784Z,101440.00
